Time;durP1;ratioP1;P1;durP2;ratioP2;P2;SDS_P1;SDS_P2;PMS_P1;PMS_P2;Temp;Humidity;BMP_temperature;BMP_pressure;BME280_temperature;BME280_humidity;BME280_pressure;Samples;Min_cycle;Max_cycle;Signal;HPM_P1;HPM_P2
2023/09/10 00:00:25;;;;;;;73.97;48.72;;;17.40;99.90;;;;;;4738156;30;20059;-72
2023/09/10 00:02:50;;;;;;;67.70;46.80;;;17.40;99.90;;;;;;4722395;30;20052;-72
2023/09/10 00:05:16;;;;;;;56.97;42.90;;;17.40;99.90;;;;;;4722290;30;20045;-72
2023/09/10 00:07:42;;;;;;;60.25;43.67;;;17.40;99.90;;;;;;4738650;30;20063;-73
2023/09/10 00:10:08;;;;;;;64.25;44.95;;;17.40;99.90;;;;;;4737662;30;20054;-73
2023/09/10 00:12:34;;;;;;;58.30;41.00;;;17.40;99.90;;;;;;4737818;30;20524;-72
2023/09/10 00:14:59;;;;;;;67.90;49.15;;;17.40;99.90;;;;;;4722055;30;20064;-73
2023/09/10 00:17:25;;;;;;;60.28;45.38;;;17.40;99.90;;;;;;4737709;30;20558;-72
2023/09/10 00:19:51;;;;;;;63.60;45.45;;;17.40;99.90;;;;;;4722011;30;20051;-72
2023/09/10 00:22:16;;;;;;;67.78;49.83;;;17.40;99.90;;;;;;4721859;30;20056;-72
2023/09/10 00:24:42;;;;;;;73.05;52.42;;;17.40;99.90;;;;;;4721893;30;20482;-72
2023/09/10 00:27:07;;;;;;;70.47;52.10;;;17.30;99.90;;;;;;4721883;30;20497;-72
2023/09/10 00:29:33;;;;;;;68.47;49.83;;;17.30;99.90;;;;;;4721959;30;20048;-72
2023/09/10 00:31:59;;;;;;;67.28;49.17;;;17.30;99.90;;;;;;4721812;30;20052;-72
2023/09/10 00:34:25;;;;;;;67.68;49.95;;;17.30;99.90;;;;;;4721786;30;20056;-72
2023/09/10 00:36:52;;;;;;;67.43;50.22;;;17.20;99.90;;;;;;4721643;30;20052;-72
2023/09/10 00:39:19;;;;;;;67.82;49.30;;;17.30;99.90;;;;;;4737527;30;20044;-72
2023/09/10 00:41:46;;;;;;;79.07;56.42;;;17.20;99.90;;;;;;4737482;30;20056;-72
2023/09/10 00:44:11;;;;;;;78.65;57.95;;;17.20;99.90;;;;;;4721799;30;20471;-72
2023/09/10 00:46:37;;;;;;;73.25;53.92;;;17.20;99.90;;;;;;4721829;30;20513;-72
2023/09/10 00:49:03;;;;;;;71.40;52.05;;;17.20;99.90;;;;;;4721570;30;20498;-72
2023/09/10 00:51:31;;;;;;;80.90;56.85;;;17.20;99.90;;;;;;4737052;30;20059;-72
2023/09/10 00:53:58;;;;;;;76.30;56.63;;;17.20;99.90;;;;;;4737230;30;20063;-72
2023/09/10 00:56:24;;;;;;;77.30;56.92;;;17.20;99.90;;;;;;4721628;30;20128;-72
2023/09/10 00:58:51;;;;;;;77.18;56.13;;;17.20;99.90;;;;;;4737129;30;20059;-72
2023/09/10 01:01:17;;;;;;;83.88;58.65;;;17.20;99.90;;;;;;4737115;30;20127;-72
2023/09/10 01:03:43;;;;;;;85.80;58.88;;;17.20;99.90;;;;;;4721352;30;20052;-72
2023/09/10 01:06:09;;;;;;;80.68;57.53;;;17.20;99.90;;;;;;4737066;30;20136;-72
2023/09/10 01:08:35;;;;;;;76.05;55.60;;;17.10;99.90;;;;;;4721453;30;20488;-72
2023/09/10 01:11:11;;;;;;;79.80;57.17;;;17.20;99.90;;;;;;4736660;30;20060;-72
2023/09/10 01:14:07;;;;;;;87.28;61.88;;;17.10;99.90;;;;;;4721122;30;20068;-72
2023/09/10 01:16:55;;;;;;;91.35;63.95;;;17.10;99.90;;;;;;4720999;30;20048;-72
2023/09/10 01:19:23;;;;;;;78.72;55.35;;;17.20;99.90;;;;;;4721307;30;20122;-72
2023/09/10 01:21:57;;;;;;;79.00;56.72;;;17.20;99.90;;;;;;4721095;30;20048;-72
2023/09/10 01:24:44;;;;;;;96.40;68.68;;;17.10;99.90;;;;;;4721272;30;20110;-72
2023/09/10 01:27:11;;;;;;;89.38;63.53;;;17.10;99.90;;;;;;4720683;30;20048;-72
2023/09/10 01:29:37;;;;;;;85.18;63.08;;;17.10;99.90;;;;;;4720771;30;20063;-72
2023/09/10 01:32:08;;;;;;;101.45;71.10;;;17.10;99.90;;;;;;4720849;30;20132;-72
2023/09/10 01:34:39;;;;;;;103.22;72.07;;;17.10;99.90;;;;;;4720782;30;20060;-72
2023/09/10 01:37:17;;;;;;;106.15;72.70;;;17.10;99.90;;;;;;4720820;30;20052;-72
2023/09/10 01:39:46;;;;;;;97.05;68.35;;;17.20;99.90;;;;;;4736054;30;20497;-72
2023/09/10 01:42:13;;;;;;;95.75;69.15;;;17.20;99.90;;;;;;4736123;30;20464;-72
2023/09/10 01:44:41;;;;;;;104.38;70.65;;;17.20;99.90;;;;;;4736413;30;20056;-72
2023/09/10 01:47:07;;;;;;;106.57;76.05;;;17.10;99.90;;;;;;4720885;30;20055;-72
2023/09/10 01:49:33;;;;;;;100.57;71.32;;;17.20;99.90;;;;;;4720378;30;20514;-72
2023/09/10 01:51:58;;;;;;;116.80;79.85;;;17.20;99.90;;;;;;4736150;30;20084;-72
2023/09/10 01:54:24;;;;;;;96.88;71.15;;;17.20;99.90;;;;;;4720312;30;20060;-72
2023/09/10 01:56:49;;;;;;;98.80;69.95;;;17.20;99.90;;;;;;4735954;30;20513;-72
2023/09/10 01:59:15;;;;;;;125.60;84.90;;;17.20;99.90;;;;;;4736153;30;20056;-72
2023/09/10 02:01:41;;;;;;;111.85;78.55;;;17.20;99.90;;;;;;4720625;30;20059;-72
2023/09/10 02:04:06;;;;;;;114.35;75.93;;;17.20;99.90;;;;;;4720302;30;20395;-72
2023/09/10 02:06:32;;;;;;;103.65;74.45;;;17.20;99.90;;;;;;4720207;30;20052;-72
2023/09/10 02:08:57;;;;;;;111.15;77.43;;;17.20;99.90;;;;;;4719990;30;20052;-73
2023/09/10 02:11:27;;;;;;;112.45;79.65;;;17.20;99.90;;;;;;4735744;30;20073;-72
2023/09/10 02:13:53;;;;;;;113.68;78.40;;;17.20;99.90;;;;;;4735873;30;20116;-72
2023/09/10 02:16:19;;;;;;;110.07;75.97;;;17.10;99.90;;;;;;4735784;30;20399;-72
2023/09/10 02:18:45;;;;;;;107.50;75.07;;;17.20;99.90;;;;;;4720083;30;20056;-72
2023/09/10 02:21:12;;;;;;;115.68;80.40;;;17.20;99.90;;;;;;4719942;30;20391;-72
2023/09/10 02:23:39;;;;;;;116.07;79.38;;;17.20;99.90;;;;;;4720199;30;20060;-72
2023/09/10 02:26:04;;;;;;;101.20;71.32;;;17.10;99.90;;;;;;4735571;30;20405;-72
2023/09/10 02:28:30;;;;;;;101.13;70.97;;;17.10;99.90;;;;;;4735723;30;20517;-72
2023/09/10 02:30:55;;;;;;;110.28;75.30;;;17.10;99.90;;;;;;4735727;30;20102;-72
2023/09/10 02:33:21;;;;;;;107.47;73.50;;;17.10;99.90;;;;;;4735567;30;20513;-72
2023/09/10 02:35:47;;;;;;;110.85;77.10;;;17.10;99.90;;;;;;4735493;30;20068;-72
2023/09/10 02:38:12;;;;;;;106.25;73.43;;;17.10;99.90;;;;;;4719756;30;20133;-72
2023/09/10 02:40:38;;;;;;;103.40;71.90;;;17.10;99.90;;;;;;4719978;30;20114;-72
2023/09/10 02:43:04;;;;;;;107.38;72.63;;;17.10;99.90;;;;;;4735543;30;20056;-72
2023/09/10 02:45:29;;;;;;;114.20;75.93;;;17.10;99.90;;;;;;4735512;30;20049;-72
2023/09/10 02:47:55;;;;;;;117.32;79.53;;;17.10;99.90;;;;;;4719480;30;20139;-72
2023/09/10 02:50:21;;;;;;;115.20;79.03;;;17.10;99.90;;;;;;4719576;30;20057;-72
2023/09/10 02:52:46;;;;;;;103.63;70.22;;;17.10;99.90;;;;;;4718944;30;20049;-72
2023/09/10 02:55:12;;;;;;;106.78;71.05;;;17.10;99.90;;;;;;4719589;30;20387;-72
2023/09/10 02:57:37;;;;;;;108.63;73.75;;;17.10;99.90;;;;;;4719798;30;20056;-72
2023/09/10 03:00:05;;;;;;;111.18;73.20;;;17.10;99.90;;;;;;4735366;30;20052;-72
2023/09/10 03:02:31;;;;;;;112.22;74.93;;;17.10;99.90;;;;;;4719586;30;20064;-72
2023/09/10 03:04:56;;;;;;;105.55;72.00;;;17.10;99.90;;;;;;4735333;30;20055;-72
2023/09/10 03:07:22;;;;;;;110.90;71.82;;;17.10;99.90;;;;;;4719631;30;20052;-72
2023/09/10 03:09:50;;;;;;;98.60;70.03;;;17.00;99.90;;;;;;4719757;30;20560;-72
2023/09/10 03:12:23;;;;;;;113.45;73.95;;;17.00;99.90;;;;;;4719645;30;20065;-72
2023/09/10 03:14:49;;;;;;;;;;;17.00;99.90;;;;;;4735524;30;20064;-73
2023/09/10 03:17:15;;;;;;;105.80;72.13;;;17.10;99.90;;;;;;4719603;30;19926;-73
2023/09/10 03:19:40;;;;;;;104.93;72.85;;;17.00;99.90;;;;;;4735208;30;20061;-73
2023/09/10 03:22:06;;;;;;;103.05;69.80;;;17.00;99.90;;;;;;4735254;30;20044;-73
2023/09/10 03:24:36;;;;;;;105.38;71.22;;;17.00;99.90;;;;;;4719393;30;20056;-73
2023/09/10 03:27:02;;;;;;;94.95;64.57;;;17.00;99.90;;;;;;4735167;30;20055;-73
2023/09/10 03:29:27;;;;;;;92.43;64.55;;;17.00;99.90;;;;;;4735146;30;20057;-73
2023/09/10 03:31:53;;;;;;;87.85;63.92;;;16.90;99.90;;;;;;4719187;30;20052;-72
2023/09/10 03:34:21;;;;;;;92.78;65.65;;;16.90;99.90;;;;;;4734930;30;20057;-73
2023/09/10 03:36:46;;;;;;;92.32;65.97;;;16.90;99.90;;;;;;4719242;30;20049;-72
2023/09/10 03:39:12;;;;;;;99.95;70.63;;;16.90;99.90;;;;;;4735050;30;20118;-72
2023/09/10 03:41:38;;;;;;;102.47;70.53;;;16.90;99.90;;;;;;4719269;30;20053;-73
2023/09/10 03:44:08;;;;;;;100.30;70.78;;;16.90;99.90;;;;;;4719807;30;20478;-73
2023/09/10 03:46:34;;;;;;;104.85;71.40;;;16.90;99.90;;;;;;4719103;30;20478;-73
2023/09/10 03:48:59;;;;;;;93.95;65.95;;;16.90;99.90;;;;;;4719422;30;20114;-73
2023/09/10 03:51:27;;;;;;;90.10;64.25;;;16.90;99.90;;;;;;4719376;30;20084;-72
2023/09/10 03:53:52;;;;;;;87.35;62.42;;;16.90;99.90;;;;;;4719223;30;20052;-73
2023/09/10 03:56:18;;;;;;;85.85;60.40;;;16.90;99.90;;;;;;4719194;30;20470;-73
2023/09/10 03:58:44;;;;;;;87.03;62.40;;;16.90;99.90;;;;;;4719207;30;20058;-73
2023/09/10 04:01:09;;;;;;;79.95;56.85;;;16.80;99.90;;;;;;4719042;30;20052;-72
2023/09/10 04:03:35;;;;;;;80.57;58.10;;;16.80;99.90;;;;;;4720051;30;20053;-72
2023/09/10 04:06:01;;;;;;;86.18;60.55;;;16.80;99.90;;;;;;4722307;30;20445;-73
2023/09/10 04:08:26;;;;;;;78.53;57.60;;;16.70;99.90;;;;;;4738111;30;20478;-72
2023/09/10 04:10:52;;;;;;;84.32;59.92;;;16.70;99.90;;;;;;4721935;30;20445;-73
2023/09/10 04:13:17;;;;;;;82.60;59.85;;;16.70;99.90;;;;;;4737885;30;20061;-72
2023/09/10 04:15:43;;;;;;;88.45;64.22;;;16.60;99.90;;;;;;4722018;30;20056;-72
2023/09/10 04:18:09;;;;;;;82.68;59.80;;;16.60;99.90;;;;;;4722370;30;20057;-73
2023/09/10 04:20:34;;;;;;;82.30;58.22;;;16.70;99.90;;;;;;4737861;30;20483;-72
2023/09/10 04:23:00;;;;;;;81.85;57.95;;;16.60;99.90;;;;;;4722007;30;20094;-73
2023/09/10 04:25:26;;;;;;;81.05;59.65;;;16.60;99.90;;;;;;4722062;30;20096;-72
2023/09/10 04:27:51;;;;;;;84.35;58.88;;;16.60;99.90;;;;;;4737735;30;20052;-72
2023/09/10 04:30:17;;;;;;;77.82;56.00;;;16.60;99.90;;;;;;4737761;30;20076;-73
2023/09/10 04:32:42;;;;;;;83.15;59.17;;;16.50;99.90;;;;;;4737554;30;20383;-72
2023/09/10 04:35:08;;;;;;;81.70;56.67;;;16.50;99.90;;;;;;4737578;30;20418;-72
2023/09/10 04:37:34;;;;;;;74.15;55.17;;;16.50;99.90;;;;;;4721886;30;20060;-72
2023/09/10 04:40:05;;;;;;;75.18;54.22;;;16.50;99.90;;;;;;4721829;30;20053;-72
2023/09/10 04:42:31;;;;;;;84.25;58.70;;;16.50;99.90;;;;;;4722023;30;20108;-72
2023/09/10 04:44:57;;;;;;;81.95;58.88;;;16.50;99.90;;;;;;4721845;30;20479;-73
2023/09/10 04:47:22;;;;;;;77.13;57.63;;;16.50;99.90;;;;;;4721788;30;20061;-73
2023/09/10 04:49:48;;;;;;;76.18;57.22;;;16.50;99.90;;;;;;4721790;30;20394;-72
2023/09/10 04:52:15;;;;;;;76.40;55.83;;;16.50;99.90;;;;;;4721719;30;20486;-72
2023/09/10 04:54:42;;;;;;;72.45;52.67;;;16.40;99.90;;;;;;4721243;30;20453;-72
2023/09/10 04:57:09;;;;;;;76.22;57.03;;;16.40;99.90;;;;;;4737784;30;20092;-72
2023/09/10 04:59:35;;;;;;;72.50;54.67;;;16.40;99.90;;;;;;4738989;30;20117;-72
2023/09/10 05:02:00;;;;;;;71.22;52.47;;;16.40;99.90;;;;;;4754816;30;20492;-72
2023/09/10 05:04:27;;;;;;;76.13;55.95;;;16.40;99.90;;;;;;4754661;30;20052;-72
2023/09/10 05:06:52;;;;;;;73.72;53.03;;;16.40;99.90;;;;;;4738615;30;20131;-72
2023/09/10 05:09:18;;;;;;;68.45;51.53;;;16.40;99.90;;;;;;4738701;30;20143;-72
2023/09/10 05:11:45;;;;;;;72.22;53.75;;;16.40;99.90;;;;;;4738285;30;20120;-72
2023/09/10 05:14:10;;;;;;;69.60;51.53;;;16.40;99.90;;;;;;4754420;30;20053;-72
2023/09/10 05:16:36;;;;;;;72.78;52.80;;;16.40;99.90;;;;;;4737792;30;20062;-72
2023/09/10 05:19:01;;;;;;;72.68;51.03;;;16.40;99.90;;;;;;4738359;30;20133;-72
2023/09/10 05:21:27;;;;;;;68.72;52.97;;;16.40;99.90;;;;;;4738555;30;20087;-72
2023/09/10 05:23:53;;;;;;;70.38;52.75;;;16.40;99.90;;;;;;4754185;30;20135;-71
2023/09/10 05:26:19;;;;;;;70.82;51.90;;;16.40;99.90;;;;;;4738515;30;20052;-72
2023/09/10 05:28:44;;;;;;;63.50;47.97;;;16.40;99.90;;;;;;4738283;30;20048;-72
2023/09/10 05:31:10;;;;;;;74.97;55.17;;;16.40;99.90;;;;;;4738480;30;20097;-72
2023/09/10 05:33:36;;;;;;;73.07;54.00;;;16.40;99.90;;;;;;4754130;30;20453;-72
2023/09/10 05:36:02;;;;;;;70.30;52.85;;;16.40;99.90;;;;;;4738014;30;20105;-72
2023/09/10 05:38:27;;;;;;;68.55;51.90;;;16.50;99.90;;;;;;4754116;30;20048;-72
2023/09/10 05:40:54;;;;;;;70.57;50.20;;;16.50;99.90;;;;;;4754020;30;20052;-72
2023/09/10 05:43:19;;;;;;;69.13;51.63;;;16.50;99.90;;;;;;4737930;30;20151;-72
2023/09/10 05:45:46;;;;;;;69.30;52.13;;;16.60;99.90;;;;;;4753937;30;20130;-72
2023/09/10 05:48:12;;;;;;;65.47;51.38;;;16.60;99.90;;;;;;4738059;30;20082;-72
2023/09/10 05:50:42;;;;;;;65.13;48.75;;;16.60;99.90;;;;;;4737841;30;20052;-72
2023/09/10 05:53:07;;;;;;;74.40;53.97;;;16.70;99.90;;;;;;4753757;30;20059;-72
2023/09/10 05:55:39;;;;;;;73.38;53.85;;;16.70;99.90;;;;;;4753664;30;20044;-72
2023/09/10 05:58:04;;;;;;;76.35;55.22;;;16.80;99.90;;;;;;4737759;30;20411;-72
2023/09/10 06:00:30;;;;;;;76.85;56.38;;;16.80;99.90;;;;;;4738134;30;20052;-72
2023/09/10 06:02:55;;;;;;;71.78;53.67;;;16.90;99.90;;;;;;4753640;30;20145;-72
2023/09/10 06:05:21;;;;;;;72.00;53.65;;;17.00;99.90;;;;;;4737904;30;20052;-72
2023/09/10 06:07:47;;;;;;;74.00;56.17;;;17.00;99.90;;;;;;4753603;30;20093;-72
2023/09/10 06:10:12;;;;;;;72.60;54.63;;;17.10;99.90;;;;;;4753472;30;20467;-72
2023/09/10 06:12:39;;;;;;;77.63;57.55;;;17.10;99.90;;;;;;4737544;30;20537;-72
2023/09/10 06:15:06;;;;;;;76.30;56.10;;;17.20;99.90;;;;;;4737474;30;20516;-72
2023/09/10 06:17:33;;;;;;;79.85;59.15;;;17.30;99.90;;;;;;4737436;30;20062;-72
2023/09/10 06:19:58;;;;;;;81.00;59.90;;;17.30;99.90;;;;;;4737666;30;20052;-72
2023/09/10 06:22:24;;;;;;;77.32;57.08;;;17.40;99.90;;;;;;4735285;30;20083;-72
2023/09/10 06:24:49;;;;;;;81.05;59.28;;;17.50;99.90;;;;;;4728179;30;20443;-72
2023/09/10 06:27:15;;;;;;;90.97;66.40;;;17.60;99.90;;;;;;4719479;30;20106;-73
2023/09/10 06:29:41;;;;;;;84.38;61.63;;;17.70;99.90;;;;;;4719709;30;20125;-72
2023/09/10 06:32:06;;;;;;;84.18;60.85;;;17.70;99.90;;;;;;4719844;30;20063;-74
2023/09/10 06:34:32;;;;;;;83.88;60.22;;;17.80;99.90;;;;;;4719543;30;20418;-73
2023/09/10 06:36:59;;;;;;;90.65;64.07;;;17.90;99.90;;;;;;4719689;30;20391;-73
2023/09/10 06:39:25;;;;;;;86.05;60.20;;;18.00;99.90;;;;;;4719705;30;20063;-73
2023/09/10 06:41:53;;;;;;;91.00;64.65;;;18.10;99.90;;;;;;4735222;30;20048;-73
2023/09/10 06:44:18;;;;;;;88.18;64.55;;;18.20;99.90;;;;;;4719519;30;20064;-73
2023/09/10 06:46:44;;;;;;;87.50;67.20;;;18.30;99.90;;;;;;4719589;30;20060;-73
2023/09/10 06:49:16;;;;;;;89.60;66.22;;;18.40;99.90;;;;;;4735305;30;20082;-73
2023/09/10 06:51:41;;;;;;;91.85;68.28;;;18.50;99.90;;;;;;4735003;30;20492;-72
2023/09/10 06:54:07;;;;;;;85.47;66.38;;;18.60;99.90;;;;;;4719159;30;20135;-73
2023/09/10 06:56:32;;;;;;;89.32;67.90;;;18.70;99.90;;;;;;4735289;30;20044;-72
2023/09/10 06:58:58;;;;;;;89.22;69.55;;;18.80;99.90;;;;;;4719319;30;20052;-72
2023/09/10 07:01:24;;;;;;;93.57;71.28;;;19.00;99.90;;;;;;4734892;30;20056;-72
2023/09/10 07:03:52;;;;;;;87.68;67.75;;;19.00;99.90;;;;;;4719406;30;20506;-72
2023/09/10 07:06:17;;;;;;;81.35;63.05;;;19.00;99.90;;;;;;4735061;30;20109;-73
2023/09/10 07:08:43;;;;;;;89.10;68.35;;;19.10;99.90;;;;;;4719361;30;20060;-72
2023/09/10 07:11:10;;;;;;;88.28;67.13;;;19.30;99.90;;;;;;4719109;30;20494;-72
2023/09/10 07:13:38;;;;;;;83.00;64.88;;;19.20;99.90;;;;;;4719113;30;20061;-72
2023/09/10 07:16:05;;;;;;;85.65;64.20;;;19.40;99.90;;;;;;4719012;30;20143;-73
2023/09/10 07:18:33;;;;;;;80.93;64.03;;;19.40;99.90;;;;;;4719314;30;20201;-72
2023/09/10 07:21:02;;;;;;;81.75;64.80;;;19.50;99.90;;;;;;4734789;30;20106;-72
2023/09/10 07:23:28;;;;;;;79.70;62.45;;;19.60;99.90;;;;;;4719350;30;20075;-72
2023/09/10 07:25:54;;;;;;;77.68;60.13;;;19.60;99.90;;;;;;4734784;30;20064;-74
2023/09/10 07:28:20;;;;;;;76.75;57.97;;;19.70;99.90;;;;;;4734760;30;20052;-71
2023/09/10 07:30:46;;;;;;;79.88;62.00;;;19.70;99.90;;;;;;4718847;30;20049;-71
2023/09/10 07:33:11;;;;;;;80.78;63.05;;;19.80;99.90;;;;;;4718888;30;20056;-71
2023/09/10 07:35:37;;;;;;;69.47;56.85;;;19.90;99.90;;;;;;4718961;30;20059;-71
2023/09/10 07:38:03;;;;;;;79.80;60.65;;;20.00;99.90;;;;;;4719092;30;20053;-71
2023/09/10 07:40:28;;;;;;;72.13;57.33;;;20.10;99.90;;;;;;4738299;30;20128;-72
2023/09/10 07:42:55;;;;;;;76.97;61.70;;;20.20;99.90;;;;;;4722643;30;20079;-71
2023/09/10 07:45:21;;;;;;;68.50;54.28;;;20.30;99.90;;;;;;4738103;30;20059;-72
2023/09/10 07:47:47;;;;;;;70.60;56.00;;;20.30;99.90;;;;;;4722197;30;20135;-73
2023/09/10 07:50:13;;;;;;;68.72;55.65;;;20.40;99.90;;;;;;4722259;30;20049;-73
2023/09/10 07:52:38;;;;;;;66.80;54.25;;;20.50;99.90;;;;;;4722092;30;20057;-73
2023/09/10 07:55:04;;;;;;;63.42;51.25;;;20.60;99.90;;;;;;4738182;30;20053;-73
2023/09/10 07:57:30;;;;;;;61.90;52.15;;;20.70;99.90;;;;;;4722359;30;20444;-73
2023/09/10 07:59:55;;;;;;;62.97;51.95;;;20.80;99.90;;;;;;4737913;30;20056;-73
2023/09/10 08:02:26;;;;;;;60.55;51.10;;;20.80;99.90;;;;;;4722163;30;20099;-72
2023/09/10 08:04:52;;;;;;;59.42;48.10;;;20.90;99.90;;;;;;4722058;30;20086;-73
2023/09/10 08:07:18;;;;;;;60.00;48.25;;;21.00;99.90;;;;;;4721848;30;20048;-73
2023/09/10 08:09:43;;;;;;;59.78;48.10;;;21.00;99.90;;;;;;4721916;30;20115;-73
2023/09/10 08:12:09;;;;;;;58.97;49.47;;;21.10;99.90;;;;;;4721673;30;20064;-73
2023/09/10 08:14:37;;;;;;;54.53;45.65;;;21.20;99.90;;;;;;4737524;30;20060;-74
2023/09/10 08:17:03;;;;;;;58.20;48.33;;;21.30;99.90;;;;;;4737775;30;20106;-73
2023/09/10 08:19:29;;;;;;;55.33;45.67;;;21.40;99.90;;;;;;4721853;30;20052;-73
2023/09/10 08:21:55;;;;;;;56.45;46.47;;;21.40;99.90;;;;;;4721872;30;20118;-73
2023/09/10 08:24:21;;;;;;;47.30;40.25;;;21.50;99.90;;;;;;4721903;30;20140;-73
2023/09/10 08:26:47;;;;;;;49.92;41.47;;;21.50;99.90;;;;;;4737428;30;20051;-73
2023/09/10 08:29:12;;;;;;;50.47;39.38;;;21.60;99.90;;;;;;4721611;30;20057;-73
2023/09/10 08:31:38;;;;;;;46.08;39.78;;;21.70;99.90;;;;;;4721766;30;20132;-73
2023/09/10 08:34:04;;;;;;;41.47;35.58;;;21.70;99.90;;;;;;4721476;30;20490;-73
2023/09/10 08:36:32;;;;;;;44.28;39.15;;;21.90;99.90;;;;;;4721560;30;20052;-73
2023/09/10 08:38:58;;;;;;;45.63;39.05;;;21.90;99.90;;;;;;4737361;30;20063;-73
2023/09/10 08:41:35;;;;;;;44.95;37.78;;;22.00;99.90;;;;;;4721374;30;20052;-73
2023/09/10 08:44:02;;;;;;;45.60;36.95;;;22.10;99.90;;;;;;4736940;30;20106;-73
2023/09/10 08:46:31;;;;;;;41.08;35.05;;;22.20;99.90;;;;;;4721274;30;20068;-72
2023/09/10 08:49:00;;;;;;;38.20;33.80;;;22.20;99.90;;;;;;4737147;30;20060;-73
2023/09/10 08:51:27;;;;;;;41.70;35.03;;;22.30;99.90;;;;;;4736930;30;20494;-73
2023/09/10 08:53:56;;;;;;;43.67;36.58;;;22.40;99.90;;;;;;4721029;30;20068;-72
2023/09/10 08:56:23;;;;;;;41.85;36.42;;;22.50;99.90;;;;;;4736817;30;20044;-73
2023/09/10 08:58:50;;;;;;;36.83;32.85;;;22.50;99.90;;;;;;4736832;30;20056;-73
2023/09/10 09:01:18;;;;;;;42.97;35.13;;;22.60;99.90;;;;;;4721025;30;20053;-73
2023/09/10 09:03:46;;;;;;;37.63;33.28;;;22.60;99.90;;;;;;4736944;30;20079;-73
2023/09/10 09:06:12;;;;;;;38.40;33.75;;;22.70;99.90;;;;;;4720990;30;20065;-72
2023/09/10 09:08:41;;;;;;;33.05;28.25;;;22.80;99.90;;;;;;4720901;30;20064;-73
2023/09/10 09:11:08;;;;;;;37.17;32.28;;;22.80;99.90;;;;;;4720657;30;20457;-73
2023/09/10 09:13:38;;;;;;;37.22;30.20;;;22.90;99.90;;;;;;4720687;30;20116;-73
2023/09/10 09:16:05;;;;;;;31.17;27.50;;;23.00;99.90;;;;;;4721475;30;20057;-73
2023/09/10 09:18:33;;;;;;;35.28;30.52;;;23.00;99.90;;;;;;4736658;30;20041;-73
2023/09/10 09:21:03;;;;;;;34.88;29.52;;;23.20;99.90;;;;;;4720700;30;20053;-73
2023/09/10 09:23:32;;;;;;;35.08;29.10;;;23.30;99.90;;;;;;4720669;30;20052;-73
2023/09/10 09:25:58;;;;;;;34.92;30.55;;;23.30;99.90;;;;;;4720794;30;20131;-74
2023/09/10 09:28:25;;;;;;;31.50;28.05;;;23.40;99.90;;;;;;4720586;30;20466;-73
2023/09/10 09:30:54;;;;;;;31.73;28.30;;;23.50;99.90;;;;;;4720491;30;20124;-73
2023/09/10 09:33:19;;;;;;;33.80;28.55;;;23.60;99.90;;;;;;4740070;30;20453;-73
2023/09/10 09:35:47;;;;;;;32.10;27.05;;;23.60;99.90;;;;;;4731606;30;20052;-71
2023/09/10 09:38:16;;;;;;;32.80;28.80;;;23.70;99.90;;;;;;4731714;30;20409;-72
2023/09/10 09:40:43;;;;;;;33.35;28.20;;;23.80;99.90;;;;;;4738130;30;20064;-72
2023/09/10 09:43:11;;;;;;;35.17;29.48;;;23.90;99.90;;;;;;4747609;30;20133;-72
2023/09/10 09:45:38;;;;;;;32.92;28.70;;;23.90;99.90;;;;;;4737780;30;20066;-72
2023/09/10 09:48:04;;;;;;;34.95;27.20;;;24.10;99.90;;;;;;4737729;30;20409;-72
2023/09/10 09:50:30;;;;;;;31.27;27.75;;;24.00;99.90;;;;;;4747601;30;20145;-72
2023/09/10 09:52:56;;;;;;;35.22;27.13;;;24.10;99.90;;;;;;4737922;30;20513;-72
2023/09/10 09:55:22;;;;;;;33.75;24.80;;;24.20;99.90;;;;;;4737577;30;20078;-74
2023/09/10 09:57:51;;;;;;;29.80;26.20;;;24.20;99.90;;;;;;4737591;30;20052;-72
2023/09/10 10:00:17;;;;;;;26.85;23.95;;;24.30;99.90;;;;;;4737736;30;20545;-73
2023/09/10 10:02:43;;;;;;;31.08;27.60;;;24.40;99.90;;;;;;4737071;30;20186;-72
2023/09/10 10:05:09;;;;;;;29.55;24.90;;;24.50;99.90;;;;;;4753234;30;20501;-72
2023/09/10 10:07:40;;;;;;;31.50;25.67;;;24.50;99.90;;;;;;4731581;30;20060;-72
2023/09/10 10:10:08;;;;;;;31.15;25.92;;;24.50;99.90;;;;;;4737454;30;20119;-73
2023/09/10 10:12:34;;;;;;;28.73;25.70;;;24.60;99.90;;;;;;4737621;30;20064;-72
2023/09/10 10:15:00;;;;;;;26.98;24.15;;;24.70;99.90;;;;;;4730151;30;20127;-73
2023/09/10 10:17:26;;;;;;;27.02;24.15;;;24.80;99.90;;;;;;4736783;30;20132;-73
2023/09/10 10:19:52;;;;;;;28.77;25.63;;;24.80;99.90;;;;;;4737409;30;20063;-72
2023/09/10 10:22:19;;;;;;;24.95;20.95;;;24.90;99.90;;;;;;4737374;30;20486;-72
2023/09/10 10:24:45;;;;;;;27.98;23.70;;;25.00;99.90;;;;;;4753054;30;20059;-72
2023/09/10 10:27:13;;;;;;;28.63;25.65;;;25.10;99.90;;;;;;4737319;30;20083;-72
2023/09/10 10:29:39;;;;;;;28.45;25.50;;;25.20;99.90;;;;;;4753042;30;20083;-72
2023/09/10 10:32:16;;;;;;;28.52;24.50;;;25.30;99.90;;;;;;4737082;30;20079;-72
2023/09/10 10:34:53;;;;;;;25.65;22.38;;;25.30;99.90;;;;;;4752861;30;20541;-72
2023/09/10 10:37:27;;;;;;;25.92;22.48;;;25.40;99.90;;;;;;4737032;30;20052;-72
2023/09/10 10:40:09;;;;;;;28.35;25.48;;;25.60;99.90;;;;;;4753098;30;20063;-72
2023/09/10 10:42:46;;;;;;;26.30;23.48;;;25.70;99.90;;;;;;4731140;30;20143;-72
2023/09/10 10:45:17;;;;;;;29.75;25.13;;;25.80;99.90;;;;;;4737117;30;20421;-72
2023/09/10 10:47:44;;;;;;;24.90;22.30;;;25.70;99.90;;;;;;4736929;30;20088;-72
2023/09/10 10:50:10;;;;;;;24.30;20.95;;;25.80;99.90;;;;;;4736800;30;20052;-72
2023/09/10 10:52:44;;;;;;;24.58;22.08;;;25.90;99.90;;;;;;4752592;30;20466;-72
2023/09/10 10:55:12;;;;;;;21.58;18.98;;;26.10;99.90;;;;;;4736760;30;20131;-72
2023/09/10 10:57:38;;;;;;;27.67;22.05;;;26.20;99.90;;;;;;4736633;30;20044;-72
2023/09/10 11:00:09;;;;;;;26.17;23.38;;;26.30;99.90;;;;;;4727951;30;20048;-73
2023/09/10 11:02:35;;;;;;;24.25;19.40;;;26.30;99.90;;;;;;4728800;30;20401;-73
2023/09/10 11:05:06;;;;;;;24.10;21.58;;;26.40;99.90;;;;;;4727019;30;20055;-73
2023/09/10 11:07:32;;;;;;;29.60;23.42;;;26.50;99.90;;;;;;4742672;30;20129;-73
2023/09/10 11:10:00;;;;;;;22.40;19.70;;;26.40;99.90;;;;;;4726417;30;20523;-73
2023/09/10 11:12:27;;;;;;;23.20;18.98;;;26.50;99.90;;;;;;4736300;30;20060;-72
2023/09/10 11:15:05;;;;;;;25.85;23.20;;;26.70;99.90;;;;;;4751906;30;20509;-72
2023/09/10 11:17:33;;;;;;;25.65;22.92;;;26.60;99.90;;;;;;4736597;30;20113;-73
2023/09/10 11:20:00;;;;;;;24.10;21.77;;;26.40;99.90;;;;;;4736953;30;20133;-74
2023/09/10 11:22:27;;;;;;;22.65;19.42;;;26.40;99.90;;;;;;4752761;30;20048;-74
2023/09/10 11:25:05;;;;;;;20.58;18.50;;;26.60;99.90;;;;;;4736628;30;20576;-74
2023/09/10 11:27:34;;;;;;;23.83;19.98;;;26.70;99.90;;;;;;4736933;30;20080;-74
2023/09/10 11:30:16;;;;;;;20.70;18.42;;;26.70;99.90;;;;;;4736803;30;20057;-74
2023/09/10 11:32:42;;;;;;;20.52;18.27;;;26.90;99.90;;;;;;4736611;30;20059;-74
2023/09/10 11:35:17;;;;;;;24.15;21.67;;;27.10;99.90;;;;;;4736599;30;20056;-74
2023/09/10 11:37:52;;;;;;;20.42;18.13;;;26.90;99.90;;;;;;4736872;30;20063;-74
2023/09/10 11:40:19;;;;;;;19.65;17.63;;;27.00;99.90;;;;;;4736758;30;20123;-74
2023/09/10 11:42:46;;;;;;;20.88;18.63;;;27.00;99.90;;;;;;4736563;30;20488;-73
2023/09/10 11:45:12;;;;;;;22.85;20.42;;;27.20;99.90;;;;;;4736782;30;20076;-74
2023/09/10 11:47:42;;;;;;;21.55;17.70;;;27.10;99.90;;;;;;4752400;30;20476;-74
2023/09/10 11:50:10;;;;;;;23.10;20.65;;;26.90;99.90;;;;;;4730431;30;20052;-74
2023/09/10 11:52:36;;;;;;;19.13;16.60;;;26.80;99.90;;;;;;4736687;30;20082;-74
2023/09/10 11:55:03;;;;;;;19.17;17.17;;;26.90;99.90;;;;;;4736558;30;20155;-74
2023/09/10 11:57:29;;;;;;;21.92;15.98;;;27.00;99.90;;;;;;4752266;30;20045;-74
2023/09/10 11:59:56;;;;;;;18.00;14.68;;;27.20;99.90;;;;;;4736593;30;20051;-74
2023/09/10 12:02:24;;;;;;;18.55;16.55;;;27.30;99.90;;;;;;4736398;30;20493;-74
2023/09/10 12:04:49;;;;;;;21.45;16.48;;;27.50;99.90;;;;;;4736415;30;20060;-74
2023/09/10 12:07:15;;;;;;;19.52;17.48;;;27.40;99.90;;;;;;4736296;30;20054;-74
2023/09/10 12:09:41;;;;;;;19.42;16.05;;;27.30;99.90;;;;;;4736706;30;20056;-74
2023/09/10 12:12:16;;;;;;;19.67;17.67;;;27.30;99.90;;;;;;4736157;30;20056;-74
2023/09/10 12:14:50;;;;;;;20.40;16.45;;;27.40;99.90;;;;;;4736279;30;20064;-74
2023/09/10 12:17:17;;;;;;;20.95;17.42;;;27.50;99.90;;;;;;4736454;30;20421;-74
2023/09/10 12:19:47;;;;;;;22.95;18.67;;;27.40;99.90;;;;;;4752378;30;20180;-74
2023/09/10 12:22:17;;;;;;;19.02;16.55;;;27.10;99.90;;;;;;4736444;30;20117;-74
2023/09/10 12:24:44;;;;;;;18.27;15.45;;;27.20;99.90;;;;;;4736964;30;20059;-74